Time;durP1;ratioP1;P1;durP2;ratioP2;P2;SDS_P1;SDS_P2;PMS_P1;PMS_P2;Temp;Humidity;BMP_temperature;BMP_pressure;BME280_temperature;BME280_humidity;BME280_pressure;Samples;Min_cycle;Max_cycle;Signal;HPM_P1;HPM_P2
2022/10/11 00:02:19;;;;;;;;;4.75;3.00;;;;;16.00;62.47;101957.41;5059482;28;45288;-61
2022/10/11 00:04:44;;;;;;;;;3.50;2.00;;;;;15.96;62.16;101953.97;5058648;28;45238;-61
2022/10/11 00:07:10;;;;;;;;;2.50;1.75;;;;;15.97;62.08;101957.53;5059104;28;45581;-61
2022/10/11 00:09:35;;;;;;;;;4.00;2.00;;;;;15.94;62.16;101958.53;5059083;28;45365;-61
2022/10/11 00:12:00;;;;;;;;;2.00;1.50;;;;;15.93;62.07;101956.75;5059395;28;45349;-61
2022/10/11 00:14:26;;;;;;;;;2.25;1.00;;;;;15.91;61.83;101962.19;5057264;28;45515;-61
2022/10/11 00:16:53;;;;;;;;;0.75;0.75;;;;;15.90;61.74;101962.25;5051187;28;45325;-61
2022/10/11 00:19:19;;;;;;;;;2.50;2.00;;;;;15.87;61.93;101951.59;5055332;28;45344;-61
2022/10/11 00:21:45;;;;;;;;;2.00;2.00;;;;;15.90;61.91;101964.94;5058155;28;45405;-61
2022/10/11 00:24:11;;;;;;;;;1.75;1.50;;;;;15.85;61.81;101959.72;5058354;28;45306;-61
2022/10/11 00:26:37;;;;;;;;;3.50;1.50;;;;;15.87;61.72;101962.34;5059092;28;45574;-61
2022/10/11 00:29:03;;;;;;;;;2.50;1.00;;;;;15.84;61.74;101967.88;5058912;28;46037;-61
2022/10/11 00:31:28;;;;;;;;;4.25;2.00;;;;;15.78;61.64;101966.25;5059104;28;45298;-61
2022/10/11 00:33:54;;;;;;;;;1.50;1.00;;;;;15.75;62.07;101955.56;5058414;28;45569;-61
2022/10/11 00:36:20;;;;;;;;;1.00;1.00;;;;;15.82;61.93;101975.09;5058695;28;45300;-61
2022/10/11 00:38:45;;;;;;;;;2.00;0.25;;;;;15.81;61.74;101973.34;5058272;28;46212;-61
2022/10/11 00:41:11;;;;;;;;;2.00;1.00;;;;;15.82;61.91;101977.78;5058852;28;45328;-61
2022/10/11 00:43:37;;;;;;;;;1.75;1.00;;;;;15.81;61.72;101974.22;5058469;28;45404;-61
2022/10/11 00:46:24;;;;;;;;;3.00;2.00;;;;;15.81;61.43;101979.63;5052874;28;45458;-61
2022/10/11 00:48:56;;;;;;;;;0.00;0.00;;;;;15.78;61.39;101978.84;5057207;28;46292;-61
2022/10/11 00:51:48;;;;;;;;;2.00;1.00;;;;;15.78;61.52;101977.03;5058887;28;45809;-61
2022/10/11 00:54:17;;;;;;;;;1.50;1.50;;;;;15.77;61.39;101977.97;5054441;28;45378;-61
2022/10/11 00:56:48;;;;;;;;;2.75;1.75;;;;;15.78;61.31;101984.22;5062293;28;45352;-61
2022/10/11 00:59:20;;;;;;;;;2.00;1.00;;;;;15.76;61.27;101980.72;5062298;28;45504;-61
2022/10/11 01:01:45;;;;;;;;;4.25;1.00;;;;;15.74;61.25;101981.59;5062240;28;45451;-61
2022/10/11 01:04:11;;;;;;;;;2.00;1.00;;;;;15.73;61.44;101977.13;5061807;28;45691;-61
2022/10/11 01:06:36;;;;;;;;;3.75;1.25;;;;;15.69;61.16;101974.63;5061165;28;45256;-62
2022/10/11 01:09:02;;;;;;;;;5.00;1.50;;;;;15.72;60.94;101979.91;5061945;28;46258;-61
2022/10/11 01:11:29;;;;;;;;;2.00;1.25;;;;;15.69;60.81;101985.41;5061203;28;45556;-61
2022/10/11 01:14:29;;;;;;;;;3.25;1.00;;;;;15.62;60.96;101982.03;5062234;28;45411;-61
2022/10/11 01:17:12;;;;;;;;;1.00;1.00;;;;;15.61;61.21;101971.31;5052277;28;45395;-61
2022/10/11 01:19:49;;;;;;;;;1.00;1.00;;;;;15.62;61.18;101978.44;5061167;28;45508;-61
2022/10/11 01:22:33;;;;;;;;;3.50;1.00;;;;;15.63;61.17;101977.53;5061031;28;45557;-61
2022/10/11 01:25:17;;;;;;;;;1.00;1.00;;;;;15.64;61.07;101977.47;5062112;28;45330;-61
2022/10/11 01:28:21;;;;;;;;;3.50;1.00;;;;;15.62;60.87;101975.75;5061368;28;45386;-61
2022/10/11 01:30:49;;;;;;;;;1.00;1.00;;;;;15.62;60.70;101976.66;4987111;28;45560;-61
2022/10/11 01:33:23;;;;;;;;;2.25;1.00;;;;;15.59;60.59;101981.25;5061377;28;45326;-61
2022/10/11 01:36:00;;;;;;;;;1.00;1.00;;;;;15.59;60.66;101974.06;5061017;28;45476;-61
2022/10/11 01:38:49;;;;;;;;;2.25;1.00;;;;;15.57;60.42;101978.63;5061204;28;45498;-62
2022/10/11 01:41:21;;;;;;;;;0.00;0.00;;;;;15.53;60.55;101983.19;5053581;28;45332;-61
2022/10/11 01:43:48;;;;;;;;;1.00;1.00;;;;;15.51;60.27;101982.38;5053490;28;45533;-61
2022/10/11 01:46:15;;;;;;;;;2.00;1.75;;;;;15.48;60.29;101981.59;5061624;28;45348;-61
2022/10/11 01:48:53;;;;;;;;;1.00;1.00;;;;;15.45;60.72;101985.28;5061402;28;45497;-61
2022/10/11 01:51:23;;;;;;;;;1.25;1.00;;;;;15.44;60.05;101985.34;5059994;28;45569;-61
2022/10/11 01:54:07;;;;;;;;;1.75;1.00;;;;;15.42;60.43;101988.06;5060556;28;45315;-61
2022/10/11 01:56:53;;;;;;;;;4.00;2.00;;;;;15.37;60.25;101987.34;5061607;28;45367;-61
2022/10/11 01:59:54;;;;;;;;;2.50;2.00;;;;;15.33;60.39;101982.97;5061374;28;45348;-61
2022/10/11 02:02:31;;;;;;;;;2.50;1.25;;;;;15.30;60.30;101983.97;5050781;28;46260;-61
2022/10/11 02:05:04;;;;;;;;;1.00;1.00;;;;;15.26;60.42;101984.13;5051664;28;45544;-61
2022/10/11 02:07:42;;;;;;;;;1.00;1.00;;;;;15.23;60.26;101982.41;5061022;28;45553;-61
2022/10/11 02:10:28;;;;;;;;;2.00;2.00;;;;;15.19;60.39;101976.25;5048663;28;45501;-61
2022/10/11 02:13:05;;;;;;;;;2.00;1.00;;;;;15.18;60.40;101982.56;5061013;28;45394;-61
2022/10/11 02:15:33;;;;;;;;;1.00;1.00;;;;;15.14;60.05;101978.19;5061226;28;45377;-61
2022/10/11 02:18:05;;;;;;;;;1.50;1.00;;;;;15.11;60.00;101974.72;5061224;28;45539;-61
2022/10/11 02:20:33;;;;;;;;;2.25;1.00;;;;;15.05;59.93;101972.22;5060354;28;45360;-61
2022/10/11 02:23:11;;;;;;;;;1.00;1.00;;;;;15.09;60.34;101971.22;5059640;28;46349;-61
2022/10/11 02:25:38;;;;;;;;;1.75;1.00;;;;;15.08;60.23;101970.31;5060766;28;45287;-61
2022/10/11 02:28:12;;;;;;;;;6.00;1.00;;;;;15.01;60.18;101963.38;5061163;28;45339;-61
2022/10/11 02:30:41;;;;;;;;;2.25;1.00;;;;;15.01;60.08;101969.63;5060264;28;45672;-61
2022/10/11 02:33:10;;;;;;;;;2.75;2.00;;;;;15.02;60.37;101978.59;5061020;28;46209;-61
2022/10/11 02:35:41;;;;;;;;;1.25;1.00;;;;;15.05;60.17;101980.28;5063180;28;45296;-61
2022/10/11 02:38:35;;;;;;;;;2.00;2.00;;;;;15.01;60.00;101982.19;5060517;28;45561;-62
2022/10/11 02:41:16;;;;;;;;;6.25;1.00;;;;;14.97;60.06;101985.94;5051410;28;45561;-61
2022/10/11 02:43:48;;;;;;;;;5.00;1.00;;;;;14.97;60.21;101986.81;5060545;28;45336;-61
2022/10/11 02:46:15;;;;;;;;;3.75;1.75;;;;;14.97;60.33;101985.94;5060567;28;45546;-61
2022/10/11 02:48:40;;;;;;;;;1.00;0.00;;;;;14.96;59.87;101982.34;5060740;28;45504;-61
2022/10/11 02:51:12;;;;;;;;;0.75;0.75;;;;;14.95;59.89;101982.38;5059283;28;45518;-61
2022/10/11 02:53:37;;;;;;;;;2.00;1.00;;;;;14.92;59.95;101986.06;5060112;28;45560;-61
2022/10/11 02:56:02;;;;;;;;;1.00;1.00;;;;;14.88;59.83;101981.69;5060436;28;45403;-61
2022/10/11 02:58:28;;;;;;;;;4.00;1.50;;;;;14.88;59.98;101980.81;5060594;28;45456;-61
2022/10/11 03:00:53;;;;;;;;;1.00;1.00;;;;;14.90;60.15;101989.72;5059783;28;45503;-61
2022/10/11 03:03:18;;;;;;;;;2.00;2.00;;;;;14.88;60.20;101986.19;5060110;28;49584;-61
2022/10/11 03:05:44;;;;;;;;;0.00;0.00;;;;;14.84;60.07;101980.03;5051345;28;45437;-61
2022/10/11 03:08:14;;;;;;;;;1.50;1.00;;;;;14.82;59.90;101976.53;5059923;28;45371;-61
2022/10/11 03:10:40;;;;;;;;;1.75;1.00;;;;;14.83;60.19;101991.72;5059581;28;45499;-61
2022/10/11 03:13:06;;;;;;;;;1.25;1.00;;;;;14.82;59.75;101985.47;5059075;28;46598;-61
2022/10/11 03:15:31;;;;;;;;;1.00;1.00;;;;;14.84;59.99;101984.53;5059435;28;45387;-61
2022/10/11 03:17:57;;;;;;;;;2.50;0.50;;;;;14.78;59.71;101983.81;5060107;28;45373;-61
2022/10/11 03:20:23;;;;;;;;;3.00;1.00;;;;;14.78;60.03;101986.50;5058596;28;45578;-61
2022/10/11 03:22:48;;;;;;;;;2.00;1.00;;;;;14.80;59.67;101990.00;5057788;28;45711;-61
2022/10/11 03:25:14;;;;;;;;;0.75;0.00;;;;;14.79;59.73;101984.69;5059861;28;48942;-61
2022/10/11 03:27:39;;;;;;;;;3.75;1.00;;;;;14.72;59.67;101991.19;5059717;28;45480;-61
2022/10/11 03:30:07;;;;;;;;;1.75;0.50;;;;;14.68;59.74;101982.28;5059328;28;45518;-61
2022/10/11 03:32:33;;;;;;;;;3.00;1.00;;;;;14.75;59.85;102000.03;5058921;28;45402;-61
2022/10/11 03:34:58;;;;;;;;;2.75;0.00;;;;;14.76;59.60;102008.94;5058305;28;45240;-61
2022/10/11 03:37:24;;;;;;;;;3.25;2.00;;;;;14.67;59.31;102010.13;5054038;28;45835;-61
2022/10/11 03:39:49;;;;;;;;;2.50;1.00;;;;;14.61;59.57;102002.22;5059917;28;45538;-61
2022/10/11 03:42:14;;;;;;;;;3.75;2.00;;;;;14.60;59.51;102005.81;5058942;28;45420;-61
2022/10/11 03:44:40;;;;;;;;;3.00;1.25;;;;;14.62;59.55;102007.56;5059690;28;45475;-61
2022/10/11 03:47:06;;;;;;;;;1.00;1.00;;;;;14.63;59.66;102008.44;5059607;28;45458;-61
2022/10/11 03:49:31;;;;;;;;;1.00;1.00;;;;;14.55;59.76;102005.94;5059702;28;45548;-61
2022/10/11 03:51:56;;;;;;;;;0.00;0.00;;;;;14.55;59.60;102008.63;5058640;28;47153;-61
2022/10/11 03:54:22;;;;;;;;;1.00;1.00;;;;;14.50;59.55;102012.34;5048573;28;45403;-61
2022/10/11 03:56:47;;;;;;;;;1.25;1.25;;;;;14.45;59.69;102007.13;5058051;28;45414;-61
2022/10/11 03:59:13;;;;;;;;;3.75;1.00;;;;;14.42;59.83;102008.09;5059697;28;45481;-61
2022/10/11 04:01:38;;;;;;;;;2.00;1.00;;;;;14.39;59.34;102016.22;5057747;28;46111;-61
2022/10/11 04:04:04;;;;;;;;;1.25;1.25;;;;;14.34;59.46;102018.16;5059537;28;45507;-61
2022/10/11 04:06:30;;;;;;;;;1.50;0.00;;;;;14.33;59.97;102013.72;5058595;28;45359;-61
2022/10/11 04:08:55;;;;;;;;;1.00;1.00;;;;;14.31;59.88;102017.38;5058483;28;45332;-61
2022/10/11 04:11:21;;;;;;;;;3.25;1.00;;;;;14.26;59.92;102022.88;5059226;28;46112;-61
2022/10/11 04:13:47;;;;;;;;;1.75;0.00;;;;;14.20;59.66;102014.97;5051195;28;45903;-61
2022/10/11 04:16:12;;;;;;;;;3.75;1.00;;;;;14.20;59.74;102023.03;5058405;28;45464;-61
2022/10/11 04:18:37;;;;;;;;;3.00;2.00;;;;;14.17;59.68;102020.44;5058666;28;45424;-61
2022/10/11 04:21:03;;;;;;;;;2.50;1.00;;;;;14.18;59.65;102022.19;5058757;28;45322;-61
2022/10/11 04:23:32;;;;;;;;;4.50;1.75;;;;;14.14;59.96;102024.09;5049545;28;45343;-61
2022/10/11 04:25:57;;;;;;;;;1.00;1.00;;;;;14.08;59.83;102016.19;5058208;28;45466;-61
2022/10/11 04:28:23;;;;;;;;;2.00;1.50;;;;;14.09;60.00;102013.47;5059302;28;45409;-61
2022/10/11 04:30:49;;;;;;;;;4.25;2.00;;;;;14.11;60.00;102023.28;5056587;28;45388;-61
2022/10/11 04:33:15;;;;;;;;;4.50;1.00;;;;;14.09;59.73;102021.50;5048501;28;45329;-61
2022/10/11 04:35:40;;;;;;;;;2.00;1.00;;;;;14.08;59.64;102033.19;5058116;28;45506;-61
2022/10/11 04:38:05;;;;;;;;;1.25;1.00;;;;;14.06;59.60;102026.97;5058497;28;45441;-61
2022/10/11 04:40:31;;;;;;;;;2.00;2.00;;;;;14.05;59.93;102029.72;5055821;28;45281;-61
2022/10/11 04:42:57;;;;;;;;;1.00;1.00;;;;;14.04;60.05;102023.44;5048510;28;45320;-61
2022/10/11 04:45:22;;;;;;;;;4.00;1.00;;;;;14.08;59.51;102032.28;5058876;28;45318;-61
2022/10/11 04:47:47;;;;;;;;;3.00;3.00;;;;;14.07;59.70;102027.88;5058664;28;45463;-61
2022/10/11 04:50:13;;;;;;;;;3.50;2.00;;;;;14.07;59.58;102028.75;5058621;28;45329;-61
2022/10/11 04:52:38;;;;;;;;;4.50;1.00;;;;;14.05;59.58;102018.97;5057711;28;45395;-61
2022/10/11 04:55:04;;;;;;;;;3.00;1.00;;;;;14.04;59.87;102030.63;5058781;28;45310;-61
2022/10/11 04:57:29;;;;;;;;;4.25;2.00;;;;;14.03;59.54;102028.84;5058595;28;45633;-61
2022/10/11 04:59:55;;;;;;;;;1.00;1.00;;;;;14.02;59.56;102035.16;5058611;28;45517;-60
2022/10/11 05:02:20;;;;;;;;;3.00;1.75;;;;;14.02;59.64;102032.47;5057087;28;45653;-61
2022/10/11 05:04:45;;;;;;;;;2.25;1.75;;;;;14.01;59.55;102026.22;5058643;28;45386;-61
2022/10/11 05:07:11;;;;;;;;;4.00;1.00;;;;;14.00;59.42;102031.63;5058106;28;45343;-61
2022/10/11 05:09:36;;;;;;;;;3.00;2.00;;;;;13.97;59.23;102037.97;5058425;28;46080;-61
2022/10/11 05:12:02;;;;;;;;;3.00;1.75;;;;;13.87;59.28;102023.88;5055313;28;45572;-61
2022/10/11 05:14:27;;;;;;;;;4.25;2.50;;;;;13.87;59.55;102031.94;5057657;28;45386;-61
2022/10/11 05:16:53;;;;;;;;;1.50;1.50;;;;;13.88;59.87;102033.72;5058457;28;45561;-61
2022/10/11 05:19:18;;;;;;;;;2.00;1.00;;;;;13.89;59.88;102043.50;5058375;28;45490;-61
2022/10/11 05:21:43;;;;;;;;;1.50;1.50;;;;;13.83;59.63;102042.78;5058150;28;45344;-61
2022/10/11 05:24:09;;;;;;;;;2.00;0.75;;;;;13.82;59.93;102041.03;5057487;28;45495;-61
2022/10/11 05:26:34;;;;;;;;;2.00;1.00;;;;;13.81;59.70;102039.25;5058262;28;45455;-61
2022/10/11 05:29:00;;;;;;;;;3.00;2.25;;;;;13.77;59.93;102029.53;5058088;28;45537;-61
2022/10/11 05:31:25;;;;;;;;;2.00;2.00;;;;;13.83;60.17;102049.06;5056832;28;45504;-61
2022/10/11 05:33:50;;;;;;;;;2.25;2.00;;;;;13.80;59.91;102037.50;5057622;28;45702;-61
2022/10/11 05:36:16;;;;;;;;;1.50;1.50;;;;;13.83;60.32;102046.38;5057990;28;45489;-61
2022/10/11 05:38:41;;;;;;;;;5.50;1.75;;;;;13.81;60.10;102039.25;5060368;28;45347;-61
2022/10/11 05:41:08;;;;;;;;;3.00;1.50;;;;;13.78;59.82;102045.63;5055916;28;45315;-61
2022/10/11 05:43:33;;;;;;;;;2.00;1.00;;;;;13.77;59.90;102056.38;5056652;28;45612;-61
2022/10/11 05:45:59;;;;;;;;;3.00;1.00;;;;;13.74;60.01;102053.78;5060569;28;45369;-61
2022/10/11 05:48:25;;;;;;;;;3.00;2.00;;;;;13.72;60.01;102056.47;5060134;28;45482;-61
2022/10/11 05:50:51;;;;;;;;;1.00;1.00;;;;;13.71;59.93;102050.25;5061405;28;45565;-64
2022/10/11 05:53:17;;;;;;;;;2.00;2.00;;;;;13.68;59.90;102046.72;5059253;28;45483;-65
2022/10/11 05:55:43;;;;;;;;;1.00;1.00;;;;;13.59;59.59;102037.13;5061308;28;45351;-66
2022/10/11 05:58:13;;;;;;;;;2.25;2.00;;;;;13.58;59.54;102048.78;5060480;28;46430;-65
2022/10/11 06:00:40;;;;;;;;;2.25;1.50;;;;;13.57;60.03;102052.38;5041425;28;45454;-65
2022/10/11 06:03:07;;;;;;;;;2.50;2.50;;;;;13.56;60.03;102047.03;5060490;28;45490;-65
2022/10/11 06:05:33;;;;;;;;;4.50;2.50;;;;;13.53;59.74;102045.28;5045066;28;45520;-65
2022/10/11 06:07:59;;;;;;;;;3.50;1.75;;;;;13.56;59.84;102050.59;5061475;28;46273;-66
2022/10/11 06:10:24;;;;;;;;;3.00;1.00;;;;;13.52;59.77;102055.16;5060865;28;45418;-65
2022/10/11 06:12:50;;;;;;;;;2.50;2.25;;;;;13.51;59.69;102056.09;5060969;28;45434;-65
2022/10/11 06:15:15;;;;;;;;;2.25;2.00;;;;;13.44;59.64;102054.44;5060744;28;45264;-65
2022/10/11 06:17:40;;;;;;;;;2.00;1.25;;;;;13.51;59.88;102063.25;5060691;28;46328;-65
2022/10/11 06:20:06;;;;;;;;;3.00;2.00;;;;;13.47;59.69;102050.84;5059940;28;45275;-65
2022/10/11 06:22:32;;;;;;;;;2.00;2.00;;;;;13.45;59.70;102058.91;5060582;28;45351;-65
2022/10/11 06:24:57;;;;;;;;;3.00;1.25;;;;;13.41;59.60;102061.69;5060905;28;45337;-65
2022/10/11 06:27:22;;;;;;;;;2.00;2.00;;;;;13.38;59.67;102062.66;5060368;28;46458;-65
2022/10/11 06:29:48;;;;;;;;;4.25;2.50;;;;;13.38;59.80;102065.34;5060847;28;45332;-65
2022/10/11 06:32:13;;;;;;;;;3.00;2.00;;;;;13.45;59.98;102076.81;5060757;28;45364;-65
2022/10/11 06:34:38;;;;;;;;;3.25;1.00;;;;;13.43;60.14;102065.22;5060919;28;45308;-66
2022/10/11 06:37:04;;;;;;;;;2.00;2.00;;;;;13.48;59.80;102071.34;5059721;28;45508;-67
2022/10/11 06:39:29;;;;;;;;;1.00;1.00;;;;;13.47;59.83;102081.22;5059389;28;45241;-66
2022/10/11 06:41:54;;;;;;;;;2.50;1.00;;;;;13.42;59.59;102067.03;5041401;28;45431;-65
2022/10/11 06:44:20;;;;;;;;;4.50;3.50;;;;;13.43;59.93;102074.16;5059235;28;45912;-64
2022/10/11 06:46:45;;;;;;;;;2.00;1.75;;;;;13.39;60.13;102071.59;5057457;28;45444;-65
2022/10/11 06:49:10;;;;;;;;;3.50;1.00;;;;;13.41;59.61;102069.75;5041685;28;45475;-65
2022/10/11 06:51:36;;;;;;;;;2.75;2.75;;;;;13.37;59.63;102076.09;5037934;28;45394;-64
2022/10/11 06:54:01;;;;;;;;;4.00;2.00;;;;;13.36;59.54;102083.25;5058785;28;45328;-64
2022/10/11 06:56:29;;;;;;;;;4.25;2.00;;;;;13.37;59.81;102076.09;5059701;28;47153;-64
2022/10/11 06:58:56;;;;;;;;;2.00;2.00;;;;;13.33;59.87;102073.50;5058370;28;45687;-64
2022/10/11 07:01:22;;;;;;;;;4.00;3.00;;;;;13.37;59.71;102084.16;5049243;28;45767;-64
2022/10/11 07:03:49;;;;;;;;;4.00;4.00;;;;;13.42;60.00;102090.28;5057779;28;45414;-65
2022/10/11 07:06:26;;;;;;;;;5.75;3.75;;;;;13.41;59.99;102085.84;5055288;28;46383;-65
2022/10/11 07:08:52;;;;;;;;;3.00;3.00;;;;;13.39;59.57;102077.81;5049478;28;45829;-65
2022/10/11 07:11:21;;;;;;;;;3.50;2.00;;;;;13.42;59.55;102091.16;5057042;28;45514;-64
2022/10/11 07:13:52;;;;;;;;;2.25;2.25;;;;;13.36;59.43;102087.75;5055177;28;45544;-65
2022/10/11 07:16:17;;;;;;;;;4.25;4.00;;;;;13.35;59.79;102086.88;5056225;28;45531;-65
2022/10/11 07:18:43;;;;;;;;;6.25;2.50;;;;;13.39;60.10;102093.03;5041584;28;45356;-65
2022/10/11 07:21:11;;;;;;;;;1.50;1.50;;;;;13.48;59.96;102100.84;5059073;28;45494;-64
2022/10/11 07:23:37;;;;;;;;;3.00;2.00;;;;;13.51;59.90;102107.06;5037368;28;46239;-61
2022/10/11 07:26:03;;;;;;;;;2.50;1.50;;;;;13.48;59.72;102098.19;5050804;27;46170;-61
2022/10/11 07:28:29;;;;;;;;;2.75;2.00;;;;;13.54;59.56;102108.78;5053168;28;45665;-61
2022/10/11 07:30:55;;;;;;;;;4.00;3.00;;;;;13.56;59.67;102106.06;5055371;28;45510;-61
2022/10/11 07:33:21;;;;;;;;;5.25;1.25;;;;;13.57;59.40;102108.72;5050065;28;45399;-61
2022/10/11 07:35:47;;;;;;;;;3.00;1.75;;;;;13.61;59.45;102117.56;5057327;28;45572;-61
2022/10/11 07:38:13;;;;;;;;;1.25;1.25;;;;;13.58;59.03;102112.25;5058759;28;45674;-61
2022/10/11 07:40:44;;;;;;;;;2.25;2.00;;;;;13.59;58.93;102114.03;5059129;28;45359;-61
2022/10/11 07:43:12;;;;;;;;;6.00;2.50;;;;;13.56;58.65;102116.78;5059195;28;45508;-61
2022/10/11 07:45:39;;;;;;;;;2.50;2.50;;;;;13.51;58.43;102122.25;5058312;28;46267;-61
2022/10/11 07:48:25;;;;;;;;;2.00;2.00;;;;;13.44;58.44;102120.63;5056783;28;45743;-61
2022/10/11 07:50:50;;;;;;;;;3.00;2.00;;;;;13.40;58.93;102119.81;5058317;28;45438;-61
2022/10/11 07:53:15;;;;;;;;;2.00;2.00;;;;;13.44;58.58;102124.19;5058528;28;45504;-61
2022/10/11 07:55:41;;;;;;;;;4.00;2.00;;;;;13.43;58.51;102132.28;5059123;28;45343;-62
2022/10/11 07:58:11;;;;;;;;;2.00;2.00;;;;;13.43;58.46;102134.94;5058742;28;45356;-61
2022/10/11 08:00:38;;;;;;;;;1.00;1.00;;;;;13.41;58.55;102132.31;5055796;28;45552;-61
2022/10/11 08:03:04;;;;;;;;;2.50;2.50;;;;;13.38;58.44;102134.19;5055252;28;45548;-61
2022/10/11 08:05:31;;;;;;;;;3.00;2.25;;;;;13.41;58.64;102131.44;5058683;28;47352;-61
2022/10/11 08:07:57;;;;;;;;;2.00;2.00;;;;;13.42;58.56;102136.75;5058087;28;45322;-61
2022/10/11 08:10:23;;;;;;;;;5.00;2.00;;;;;13.42;58.34;102141.25;5058996;28;45344;-61
2022/10/11 08:12:48;;;;;;;;;2.00;2.00;;;;;13.39;58.39;102130.59;5056852;28;45346;-61
2022/10/11 08:15:13;;;;;;;;;2.00;2.00;;;;;13.44;58.72;102142.09;5058489;28;45420;-61
2022/10/11 08:17:39;;;;;;;;;4.00;2.50;;;;;13.39;58.13;102134.16;5057577;28;45377;-61
2022/10/11 08:20:04;;;;;;;;;2.75;2.75;;;;;13.47;58.58;102144.72;5059009;28;45351;-61
2022/10/11 08:22:30;;;;;;;;;2.50;2.00;;;;;13.47;58.61;102142.91;5058143;28;45589;-61
2022/10/11 08:24:55;;;;;;;;;3.75;3.25;;;;;13.49;58.57;102141.06;5056354;28;46046;-61
2022/10/11 08:27:20;;;;;;;;;3.00;2.00;;;;;13.56;59.00;102159.72;5056365;28;45298;-61
2022/10/11 08:29:46;;;;;;;;;1.50;1.50;;;;;13.59;58.69;102152.47;5057454;28;46009;-61
2022/10/11 08:32:11;;;;;;;;;2.00;2.00;;;;;13.60;58.59;102162.31;5057453;28;45401;-61
2022/10/11 08:34:37;;;;;;;;;3.00;2.50;;;;;13.62;58.51;102147.06;5057038;28;45430;-61
2022/10/11 08:37:02;;;;;;;;;3.50;2.50;;;;;13.65;58.67;102151.47;5052951;28;45916;-61
2022/10/11 08:39:27;;;;;;;;;3.75;2.00;;;;;13.62;58.50;102143.50;5049578;28;45568;-62
2022/10/11 08:41:58;;;;;;;;;2.00;2.00;;;;;13.67;58.39;102153.19;5054568;28;45355;-61
2022/10/11 08:44:45;;;;;;;;;4.25;2.75;;;;;13.70;58.61;102154.94;5060638;28;45846;-61
2022/10/11 08:47:22;;;;;;;;;2.00;2.00;;;;;13.72;58.47;102155.78;5051530;28;45371;-61
2022/10/11 08:49:50;;;;;;;;;3.00;2.00;;;;;13.73;58.56;102152.16;5056100;28;45595;-61
2022/10/11 08:52:20;;;;;;;;;6.00;3.00;;;;;13.77;58.56;102155.69;5057440;28;45714;-61
2022/10/11 08:54:54;;;;;;;;;3.25;3.25;;;;;13.81;58.34;102146.63;5050889;28;46613;-61
2022/10/11 08:57:22;;;;;;;;;3.50;3.00;;;;;13.86;58.25;102160.81;5064410;28;45335;-61
2022/10/11 08:59:50;;;;;;;;;2.75;2.00;;;;;13.88;58.10;102165.25;5056504;28;45428;-61
2022/10/11 09:02:18;;;;;;;;;2.00;2.00;;;;;13.89;58.31;102164.31;5055371;28;45336;-61
2022/10/11 09:04:47;;;;;;;;;5.00;2.00;;;;;13.96;58.02;102164.16;5056703;28;45391;-61
2022/10/11 09:07:23;;;;;;;;;5.00;1.75;;;;;14.00;58.33;102164.06;5054393;27;45668;-65
2022/10/11 09:09:59;;;;;;;;;5.00;2.75;;;;;14.03;58.34;102166.69;5054772;28;46507;-66
2022/10/11 09:13:06;;;;;;;;;1.00;1.00;;;;;14.11;58.04;102165.59;5051858;28;45405;-65
2022/10/11 09:15:48;;;;;;;;;3.75;3.00;;;;;14.13;57.77;102161.94;4997781;28;46515;-65
2022/10/11 09:18:53;;;;;;;;;2.00;2.00;;;;;14.15;57.38;102162.81;5053549;28;45585;-65
2022/10/11 09:21:18;;;;;;;;;5.50;3.00;;;;;14.19;57.31;102152.88;5048779;28;45538;-65
2022/10/11 09:24:25;;;;;;;;;1.75;1.50;;;;;14.24;57.65;102153.63;5058678;28;45571;-65
2022/10/11 09:26:56;;;;;;;;;2.00;2.00;;;;;14.26;57.71;102149.09;5048695;28;45708;-66
2022/10/11 09:29:59;;;;;;;;;4.75;2.50;;;;;14.31;58.08;102152.53;5060320;28;45423;-65
2022/10/11 09:32:31;;;;;;;;;3.50;2.00;;;;;14.39;57.87;102155.91;4967969;28;45663;-65
2022/10/11 09:35:09;;;;;;;;;6.50;2.50;;;;;14.44;57.76;102151.31;5041848;28;45449;-65
2022/10/11 09:37:47;;;;;;;;;2.00;2.00;;;;;14.51;57.83;102145.78;5060003;28;45783;-65
2022/10/11 09:40:32;;;;;;;;;3.25;2.75;;;;;14.55;57.62;102150.13;5066538;28;45722;-65
2022/10/11 09:42:58;;;;;;;;;2.25;2.25;;;;;14.52;57.39;102140.38;5058150;28;45404;-66
2022/10/11 09:45:24;;;;;;;;;4.25;3.50;;;;;14.61;57.70;102139.28;5062259;28;45533;-65
2022/10/11 09:47:52;;;;;;;;;2.25;2.25;;;;;14.66;57.59;102137.34;5041050;28;47339;-65
2022/10/11 09:50:21;;;;;;;;;3.25;3.25;;;;;14.69;57.59;102139.06;5054644;28;45508;-65
2022/10/11 09:52:49;;;;;;;;;5.50;4.50;;;;;14.74;57.77;102137.13;5056519;28;45772;-65
2022/10/11 09:55:32;;;;;;;;;3.00;2.75;;;;;14.70;57.52;102120.22;5027977;28;46500;-65
2022/10/11 09:57:58;;;;;;;;;4.00;4.00;;;;;14.76;57.71;102132.59;5019988;27;46205;-64
2022/10/11 10:00:25;;;;;;;;;4.00;4.00;;;;;14.79;58.11;102122.63;5024889;28;45830;-65
2022/10/11 10:02:53;;;;;;;;;5.00;5.00;;;;;14.84;57.89;102124.34;5023139;28;45489;-65
2022/10/11 10:05:20;;;;;;;;;6.75;3.50;;;;;14.90;57.78;102133.09;5021542;28;45589;-64
2022/10/11 10:08:04;;;;;;;;;4.00;4.00;;;;;14.93;57.75;102130.31;5023144;28;46555;-65
2022/10/11 10:10:39;;;;;;;;;5.00;2.25;;;;;14.95;58.16;102122.19;5030274;28;46216;-64
2022/10/11 10:13:20;;;;;;;;;2.25;2.00;;;;;15.02;57.93;102139.94;5046516;28;46680;-65
2022/10/11 10:15:49;;;;;;;;;5.25;5.25;;;;;15.01;57.82;102124.72;5056648;28;45382;-65
2022/10/11 10:18:23;;;;;;;;;6.25;6.25;;;;;15.07;57.80;102131.72;5059714;28;47100;-65
2022/10/11 10:20:55;;;;;;;;;3.00;2.50;;;;;15.07;57.89;102129.03;5060090;28;45374;-65
2022/10/11 10:23:28;;;;;;;;;7.50;7.50;;;;;15.05;57.69;102126.41;5041535;28;45446;-65
2022/10/11 10:26:10;;;;;;;;;6.75;6.00;;;;;15.14;58.29;102126.13;5056369;28;45714;-65
2022/10/11 10:28:36;;;;;;;;;5.75;5.00;;;;;15.21;58.03;102120.56;5063156;28;45598;-65
2022/10/11 10:31:01;;;;;;;;;5.00;4.25;;;;;15.29;57.83;102134.69;5059312;28;45377;-65
2022/10/11 10:33:33;;;;;;;;;3.50;3.50;;;;;15.27;57.42;102137.41;5054358;28;45538;-65
2022/10/11 10:36:37;;;;;;;;;5.75;4.75;;;;;15.31;57.96;102131.00;5057151;28;45293;-65
2022/10/11 10:39:21;;;;;;;;;5.75;4.00;;;;;15.36;57.52;102126.34;5034770;28;46386;-64
2022/10/11 10:41:46;;;;;;;;;4.75;4.50;;;;;15.41;57.98;102122.66;5059531;28;45329;-62
2022/10/11 10:44:14;;;;;;;;;6.50;4.75;;;;;15.48;57.36;102133.16;5058074;28;46782;-61
2022/10/11 10:46:56;;;;;;;;;6.00;5.00;;;;;15.55;57.61;102125.78;5059065;28;45735;-62
2022/10/11 10:49:31;;;;;;;;;8.00;7.00;;;;;15.61;57.51;102128.28;5053031;28;45435;-62
2022/10/11 10:52:12;;;;;;;;;10.25;6.00;;;;;15.68;57.77;102121.78;5059400;28;45624;-61
2022/10/11 10:54:49;;;;;;;;;6.00;5.00;;;;;15.75;57.28;102133.22;5057710;28;45699;-62
2022/10/11 10:57:47;;;;;;;;;4.75;4.75;;;;;15.80;57.13;102127.75;5059001;28;45308;-61
2022/10/11 11:00:16;;;;;;;;;4.25;4.00;;;;;15.83;57.09;102125.81;5052110;28;45535;-62
2022/10/11 11:02:59;;;;;;;;;6.50;5.50;;;;;15.83;57.38;102119.56;5059718;28;45405;-62
2022/10/11 11:05:42;;;;;;;;;6.75;5.00;;;;;15.93;57.64;102123.72;5056770;28;45407;-62
2022/10/11 11:08:26;;;;;;;;;6.00;4.00;;;;;15.98;56.68;102126.25;5045668;28;45334;-62
2022/10/11 11:11:44;;;;;;;;;5.75;4.25;;;;;16.02;56.80;102115.34;5057750;28;46256;-62
2022/10/11 11:14:18;;;;;;;;;6.25;5.00;;;;;16.04;57.24;102124.25;5020651;28;45578;-61
2022/10/11 11:16:55;;;;;;;;;5.25;4.25;;;;;16.07;56.65;102125.94;5052243;28;45482;-62
2022/10/11 11:20:01;;;;;;;;;7.00;4.75;;;;;16.10;56.47;102109.69;5056815;28;45693;-62
2022/10/11 11:22:53;;;;;;;;;7.25;4.75;;;;;16.14;56.77;102116.75;5053297;28;45577;-62
2022/10/11 11:25:21;;;;;;;;;5.75;5.00;;;;;16.18;56.15;102107.63;5055496;28;45749;-61
2022/10/11 11:28:19;;;;;;;;;6.75;5.50;;;;;16.21;56.56;102117.41;5057637;28;45381;-62
2022/10/11 11:31:07;;;;;;;;;3.50;3.00;;;;;16.24;56.74;102096.63;5056739;28;45617;-62
2022/10/11 11:34:06;;;;;;;;;5.50;3.75;;;;;16.30;56.13;102109.00;5046580;28;46310;-61
2022/10/11 11:36:46;;;;;;;;;4.00;3.25;;;;;16.29;55.75;102097.34;5055729;28;45473;-61
2022/10/11 11:39:25;;;;;;;;;5.25;4.75;;;;;16.29;55.97;102097.34;5056678;28;45332;-61
2022/10/11 11:42:19;;;;;;;;;4.75;3.00;;;;;16.36;56.03;102098.03;5057378;28;45509;-62